sensor_id;sensor_type;location;lat;lon;timestamp;pressure;altitude;pressure_sealevel;temperature;humidity
42705;BME280;28342;42.594;23.414;2023-01-31T00:01:35;93888.66;;;-0.69;79.35
42705;BME280;28342;42.594;23.414;2023-01-31T00:04:03;93915.06;;;-0.55;79.55
42705;BME280;28342;42.594;23.414;2023-01-31T00:06:32;93920.53;;;-0.52;79.96
42705;BME280;28342;42.594;23.414;2023-01-31T00:08:58;93940.94;;;-0.39;78.86
42705;BME280;28342;42.594;23.414;2023-01-31T00:11:27;93909.78;;;-0.66;79.57
42705;BME280;28342;42.594;23.414;2023-01-31T00:13:53;93947.09;;;-0.50;80.79
42705;BME280;28342;42.594;23.414;2023-01-31T00:16:20;93918.97;;;-0.53;79.46
42705;BME280;28342;42.594;23.414;2023-01-31T00:18:46;93920.47;;;-0.62;81.10
42705;BME280;28342;42.594;23.414;2023-01-31T00:23:42;93940.59;;;-0.52;80.95
42705;BME280;28342;42.594;23.414;2023-01-31T00:28:42;93927.09;;;-0.44;80.06
42705;BME280;28342;42.594;23.414;2023-01-31T00:31:10;93905.41;;;-0.55;81.28
42705;BME280;28342;42.594;23.414;2023-01-31T00:33:37;93940.47;;;-0.25;81.35
42705;BME280;28342;42.594;23.414;2023-01-31T00:36:05;93935.53;;;-0.22;80.32
42705;BME280;28342;42.594;23.414;2023-01-31T00:38:33;93935.00;;;-0.24;80.39
42705;BME280;28342;42.594;23.414;2023-01-31T00:40:58;93914.88;;;-0.39;79.15
42705;BME280;28342;42.594;23.414;2023-01-31T00:43:25;93937.09;;;-0.21;77.98
42705;BME280;28342;42.594;23.414;2023-01-31T00:45:50;93931.03;;;-0.42;77.36
42705;BME280;28342;42.594;23.414;2023-01-31T00:48:17;93919.28;;;-0.44;75.80
42705;BME280;28342;42.594;23.414;2023-01-31T00:50:43;93948.81;;;-0.28;75.47
42705;BME280;28342;42.594;23.414;2023-01-31T00:53:09;93919.53;;;-0.46;75.28
42705;BME280;28342;42.594;23.414;2023-01-31T00:55:35;93950.84;;;-0.36;74.93
42705;BME280;28342;42.594;23.414;2023-01-31T00:58:03;93950.13;;;-0.26;74.56
42705;BME280;28342;42.594;23.414;2023-01-31T01:00:28;93929.50;;;-0.33;74.66
42705;BME280;28342;42.594;23.414;2023-01-31T01:02:55;93902.09;;;-0.40;75.09
42705;BME280;28342;42.594;23.414;2023-01-31T01:05:21;93907.59;;;-0.37;74.78
42705;BME280;28342;42.594;23.414;2023-01-31T01:07:46;93959.06;;;-0.07;75.80
42705;BME280;28342;42.594;23.414;2023-01-31T01:10:12;93907.59;;;-0.37;75.43
42705;BME280;28342;42.594;23.414;2023-01-31T01:12:38;93946.28;;;-0.08;75.95
42705;BME280;28342;42.594;23.414;2023-01-31T01:15:04;93903.69;;;-0.34;75.80
42705;BME280;28342;42.594;23.414;2023-01-31T01:17:30;93913.91;;;-0.22;75.27
42705;BME280;28342;42.594;23.414;2023-01-31T01:19:55;93913.31;;;-0.35;76.09
42705;BME280;28342;42.594;23.414;2023-01-31T01:22:21;93941.09;;;-0.08;76.38
42705;BME280;28342;42.594;23.414;2023-01-31T01:24:47;93937.94;;;-0.10;76.62
42705;BME280;28342;42.594;23.414;2023-01-31T01:27:13;93941.09;;;-0.08;76.22
42705;BME280;28342;42.594;23.414;2023-01-31T01:29:40;93930.84;;;-0.25;75.90
42705;BME280;28342;42.594;23.414;2023-01-31T01:32:06;93939.72;;;-0.16;76.43
42705;BME280;28342;42.594;23.414;2023-01-31T01:34:33;93946.28;;;-0.08;76.26
42705;BME280;28342;42.594;23.414;2023-01-31T01:36:59;93933.25;;;-0.13;76.13
42705;BME280;28342;42.594;23.414;2023-01-31T01:39:26;93923.34;;;-0.06;76.21
42705;BME280;28342;42.594;23.414;2023-01-31T01:41:55;93928.09;;;0.07;75.86
42705;BME280;28342;42.594;23.414;2023-01-31T01:44:47;93943.81;;;0.17;76.07
42705;BME280;28342;42.594;23.414;2023-01-31T01:47:45;93941.44;;;0.16;75.95
42705;BME280;28342;42.594;23.414;2023-01-31T01:50:38;93900.44;;;-0.04;75.93
42705;BME280;28342;42.594;23.414;2023-01-31T01:53:19;93891.03;;;-0.10;76.25
42705;BME280;28342;42.594;23.414;2023-01-31T01:55:53;93905.63;;;-0.09;76.43
42705;BME280;28342;42.594;23.414;2023-01-31T01:58:24;93938.00;;;0.00;77.72
42705;BME280;28342;42.594;23.414;2023-01-31T02:00:52;93872.06;;;-0.53;77.59
42705;BME280;28342;42.594;23.414;2023-01-31T02:03:18;93907.06;;;-0.34;79.41
42705;BME280;28342;42.594;23.414;2023-01-31T02:06:05;93905.59;;;-0.67;76.14
42705;BME280;28342;42.594;23.414;2023-01-31T02:08:34;93908.78;;;-0.59;73.70
42705;BME280;28342;42.594;23.414;2023-01-31T02:13:31;93878.84;;;-0.52;69.46
42705;BME280;28342;42.594;23.414;2023-01-31T02:15:57;93902.97;;;-0.24;69.17
42705;BME280;28342;42.594;23.414;2023-01-31T02:18:27;93879.50;;;-0.24;66.17
42705;BME280;28342;42.594;23.414;2023-01-31T02:21:24;93881.59;;;-0.26;65.36
42705;BME280;28342;42.594;23.414;2023-01-31T02:24:08;93938.06;;;0.20;63.10
42705;BME280;28342;42.594;23.414;2023-01-31T02:37:24;93926.41;;;0.48;59.24
42705;BME280;28342;42.594;23.414;2023-01-31T02:40:20;93903.94;;;0.42;59.38
42705;BME280;28342;42.594;23.414;2023-01-31T02:43:04;93927.72;;;0.61;56.82
42705;BME280;28342;42.594;23.414;2023-01-31T02:45:40;93917.00;;;0.57;56.85
42705;BME280;28342;42.594;23.414;2023-01-31T02:50:44;93930.34;;;0.66;55.96
42705;BME280;28342;42.594;23.414;2023-01-31T02:53:19;93912.56;;;0.48;56.96
42705;BME280;28342;42.594;23.414;2023-01-31T02:56:04;93903.41;;;0.45;55.24
42705;BME280;28342;42.594;23.414;2023-01-31T03:01:21;93920.16;;;0.59;56.72
42705;BME280;28342;42.594;23.414;2023-01-31T03:04:02;93897.69;;;0.38;56.84
42705;BME280;28342;42.594;23.414;2023-01-31T03:09:08;93928.25;;;0.68;59.27
42705;BME280;28342;42.594;23.414;2023-01-31T03:11:46;93962.47;;;0.87;58.57
42705;BME280;28342;42.594;23.414;2023-01-31T03:14:32;93935.03;;;0.59;59.13
42705;BME280;28342;42.594;23.414;2023-01-31T03:17:08;93930.31;;;0.56;59.86
42705;BME280;28342;42.594;23.414;2023-01-31T03:20:17;93970.03;;;0.68;59.92
42705;BME280;28342;42.594;23.414;2023-01-31T03:22:51;93968.44;;;0.72;62.00
42705;BME280;28342;42.594;23.414;2023-01-31T03:25:22;93939.97;;;0.55;61.14
42705;BME280;28342;42.594;23.414;2023-01-31T03:27:54;93997.72;;;0.79;61.96
42705;BME280;28342;42.594;23.414;2023-01-31T03:30:31;93974.97;;;0.75;63.27
42705;BME280;28342;42.594;23.414;2023-01-31T03:33:05;93940.50;;;0.52;63.53
42705;BME280;28342;42.594;23.414;2023-01-31T03:35:33;93962.19;;;0.63;64.89
42705;BME280;28342;42.594;23.414;2023-01-31T03:40:37;93976.28;;;0.72;65.90
42705;BME280;28342;42.594;23.414;2023-01-31T03:43:13;94003.97;;;0.88;66.91
42705;BME280;28342;42.594;23.414;2023-01-31T03:45:45;94012.63;;;0.99;67.32
42705;BME280;28342;42.594;23.414;2023-01-31T03:48:14;93991.94;;;0.72;68.50
42705;BME280;28342;42.594;23.414;2023-01-31T03:50:58;93995.06;;;0.64;69.57
42705;BME280;28342;42.594;23.414;2023-01-31T03:53:31;94018.59;;;0.84;69.65
42705;BME280;28342;42.594;23.414;2023-01-31T03:56:19;94038.19;;;0.87;70.17
42705;BME280;28342;42.594;23.414;2023-01-31T03:58:57;94055.94;;;0.80;70.69
42705;BME280;28342;42.594;23.414;2023-01-31T04:01:33;94006.25;;;0.54;70.79
42705;BME280;28342;42.594;23.414;2023-01-31T04:04:03;93995.03;;;0.49;70.82
42705;BME280;28342;42.594;23.414;2023-01-31T04:06:31;94036.84;;;0.74;71.30
42705;BME280;28342;42.594;23.414;2023-01-31T04:08:57;94017.44;;;0.40;71.52
42705;BME280;28342;42.594;23.414;2023-01-31T04:11:25;94025.53;;;0.43;72.29
42705;BME280;28342;42.594;23.414;2023-01-31T04:13:52;94011.16;;;0.41;72.40
42705;BME280;28342;42.594;23.414;2023-01-31T04:16:21;94042.59;;;0.71;71.95
42705;BME280;28342;42.594;23.414;2023-01-31T04:18:48;94043.63;;;0.75;72.25
42705;BME280;28342;42.594;23.414;2023-01-31T04:21:14;94056.19;;;0.83;71.86
42705;BME280;28342;42.594;23.414;2023-01-31T04:23:40;94059.84;;;0.82;72.38
42705;BME280;28342;42.594;23.414;2023-01-31T04:26:05;94047.28;;;0.64;72.33
42705;BME280;28342;42.594;23.414;2023-01-31T04:28:31;94059.00;;;0.62;71.70
42705;BME280;28342;42.594;23.414;2023-01-31T04:30:56;94053.53;;;0.63;72.37
42705;BME280;28342;42.594;23.414;2023-01-31T04:33:22;94055.06;;;0.54;72.81
42705;BME280;28342;42.594;23.414;2023-01-31T04:35:50;94044.63;;;0.54;72.55
42705;BME280;28342;42.594;23.414;2023-01-31T04:38:18;94064.44;;;0.55;72.85
42705;BME280;28342;42.594;23.414;2023-01-31T04:40:57;94043.03;;;0.48;73.71
42705;BME280;28342;42.594;23.414;2023-01-31T04:43:34;94037.69;;;0.17;74.45
42705;BME280;28342;42.594;23.414;2023-01-31T04:45:59;94038.69;;;0.11;74.21
42705;BME280;28342;42.594;23.414;2023-01-31T04:48:26;94092.31;;;0.44;74.68
42705;BME280;28342;42.594;23.414;2023-01-31T04:50:55;94067.91;;;0.13;75.19
42705;BME280;28342;42.594;23.414;2023-01-31T04:53:20;94074.91;;;0.03;75.66
42705;BME280;28342;42.594;23.414;2023-01-31T04:55:48;94077.53;;;0.13;75.46
42705;BME280;28342;42.594;23.414;2023-01-31T04:58:15;94059.03;;;0.14;75.52
42705;BME280;28342;42.594;23.414;2023-01-31T05:00:40;94093.03;;;0.29;75.58
42705;BME280;28342;42.594;23.414;2023-01-31T05:03:09;94090.66;;;0.23;75.91
42705;BME280;28342;42.594;23.414;2023-01-31T05:05:36;94107.69;;;0.36;76.37
42705;BME280;28342;42.594;23.414;2023-01-31T05:08:02;94080.97;;;0.18;76.02
42705;BME280;28342;42.594;23.414;2023-01-31T05:10:29;94086.69;;;0.15;76.00
42705;BME280;28342;42.594;23.414;2023-01-31T05:12:55;94069.47;;;0.14;76.52
42705;BME280;28342;42.594;23.414;2023-01-31T05:15:21;94053.78;;;0.04;75.69
42705;BME280;28342;42.594;23.414;2023-01-31T05:17:54;94089.88;;;0.27;74.87
42705;BME280;28342;42.594;23.414;2023-01-31T05:20:31;94043.84;;;0.01;75.16
42705;BME280;28342;42.594;23.414;2023-01-31T05:23:00;94053.50;;;0.01;75.15
42705;BME280;28342;42.594;23.414;2023-01-31T05:25:25;94068.69;;;0.14;75.27
42705;BME280;28342;42.594;23.414;2023-01-31T05:27:52;94049.38;;;0.15;74.40
42705;BME280;28342;42.594;23.414;2023-01-31T05:30:23;94081.03;;;0.28;73.53
42705;BME280;28342;42.594;23.414;2023-01-31T05:32:50;94081.34;;;0.37;74.30
42705;BME280;28342;42.594;23.414;2023-01-31T05:35:16;94078.94;;;0.30;74.20
42705;BME280;28342;42.594;23.414;2023-01-31T05:37:42;94099.34;;;0.39;74.13
42705;BME280;28342;42.594;23.414;2023-01-31T05:40:13;94072.91;;;0.20;74.18
42705;BME280;28342;42.594;23.414;2023-01-31T05:42:41;94117.94;;;0.52;74.11
42705;BME280;28342;42.594;23.414;2023-01-31T05:45:08;94104.56;;;0.44;74.45
42705;BME280;28342;42.594;23.414;2023-01-31T05:47:40;94123.41;;;0.51;74.12
42705;BME280;28342;42.594;23.414;2023-01-31T05:50:10;94104.09;;;0.47;74.14
42705;BME280;28342;42.594;23.414;2023-01-31T05:52:59;94112.97;;;0.51;74.50
42705;BME280;28342;42.594;23.414;2023-01-31T05:55:29;94087.09;;;0.44;73.50
42705;BME280;28342;42.594;23.414;2023-01-31T05:57:58;94112.47;;;0.59;74.08
42705;BME280;28342;42.594;23.414;2023-01-31T06:00:25;94103.59;;;0.55;73.60
42705;BME280;28342;42.594;23.414;2023-01-31T06:02:50;94125.56;;;0.64;73.67
42705;BME280;28342;42.594;23.414;2023-01-31T06:05:16;94119.78;;;0.57;73.64
42705;BME280;28342;42.594;23.414;2023-01-31T06:07:41;94088.91;;;0.39;73.55
42705;BME280;28342;42.594;23.414;2023-01-31T06:10:09;94075.13;;;0.48;73.09
42705;BME280;28342;42.594;23.414;2023-01-31T06:12:41;94087.66;;;0.46;73.89
42705;BME280;28342;42.594;23.414;2023-01-31T06:15:07;94121.16;;;0.70;73.44
42705;BME280;28342;42.594;23.414;2023-01-31T06:17:40;94119.25;;;0.60;73.41
42705;BME280;28342;42.594;23.414;2023-01-31T06:20:38;94102.00;;;0.49;74.75
42705;BME280;28342;42.594;23.414;2023-01-31T06:23:08;94120.91;;;0.71;74.59
42705;BME280;28342;42.594;23.414;2023-01-31T06:25:40;94146.00;;;0.82;74.89
42705;BME280;28342;42.594;23.414;2023-01-31T06:28:30;94152.78;;;0.78;75.30
42705;BME280;28342;42.594;23.414;2023-01-31T06:30:57;94136.56;;;0.71;75.58
42705;BME280;28342;42.594;23.414;2023-01-31T06:33:23;94130.34;;;0.82;75.03
42705;BME280;28342;42.594;23.414;2023-01-31T06:35:51;94128.78;;;0.86;74.93
42705;BME280;28342;42.594;23.414;2023-01-31T06:38:19;94097.34;;;0.56;75.66
42705;BME280;28342;42.594;23.414;2023-01-31T06:40:54;94101.56;;;0.62;74.57
42705;BME280;28342;42.594;23.414;2023-01-31T06:43:23;94116.81;;;0.96;75.17
42705;BME280;28342;42.594;23.414;2023-01-31T06:46:26;94135.41;;;1.14;74.99
42705;BME280;28342;42.594;23.414;2023-01-31T06:49:18;94136.16;;;1.05;75.51
42705;BME280;28342;42.594;23.414;2023-01-31T06:52:29;94108.41;;;0.78;74.99
42705;BME280;28342;42.594;23.414;2023-01-31T06:55:22;94111.50;;;0.75;74.84
42705;BME280;28342;42.594;23.414;2023-01-31T06:58:08;94126.22;;;1.02;74.76
42705;BME280;28342;42.594;23.414;2023-01-31T07:00:41;94146.13;;;1.13;75.02
42705;BME280;28342;42.594;23.414;2023-01-31T07:03:16;94124.09;;;0.83;74.91
42705;BME280;28342;42.594;23.414;2023-01-31T07:06:13;94140.06;;;0.97;75.20
42705;BME280;28342;42.594;23.414;2023-01-31T07:09:03;94119.69;;;0.94;75.07
42705;BME280;28342;42.594;23.414;2023-01-31T07:11:32;94134.59;;;1.04;74.70
42705;BME280;28342;42.594;23.414;2023-01-31T07:13:58;94097.41;;;0.76;74.37
42705;BME280;28342;42.594;23.414;2023-01-31T07:16:23;94144.03;;;1.10;74.49
42705;BME280;28342;42.594;23.414;2023-01-31T07:18:53;94145.88;;;1.14;74.07
42705;BME280;28342;42.594;23.414;2023-01-31T07:21:23;94127.28;;;1.01;74.33
42705;BME280;28342;42.594;23.414;2023-01-31T07:23:51;94139.06;;;1.13;73.97
42705;BME280;28342;42.594;23.414;2023-01-31T07:26:17;94135.13;;;1.01;74.42
42705;BME280;28342;42.594;23.414;2023-01-31T07:28:44;94153.97;;;1.18;74.06
42705;BME280;28342;42.594;23.414;2023-01-31T07:31:12;94136.16;;;0.95;73.44
42705;BME280;28342;42.594;23.414;2023-01-31T07:33:42;94143.53;;;1.18;74.09
42705;BME280;28342;42.594;23.414;2023-01-31T07:36:12;94128.88;;;1.17;73.07
42705;BME280;28342;42.594;23.414;2023-01-31T07:38:37;94132.53;;;1.16;73.82
42705;BME280;28342;42.594;23.414;2023-01-31T07:41:04;94156.38;;;1.35;74.32
42705;BME280;28342;42.594;23.414;2023-01-31T07:43:31;94151.41;;;1.28;74.35
42705;BME280;28342;42.594;23.414;2023-01-31T07:45:57;94153.50;;;1.26;74.67
42705;BME280;28342;42.594;23.414;2023-01-31T07:48:26;94177.56;;;1.48;74.32
42705;BME280;28342;42.594;23.414;2023-01-31T07:50:58;94159.28;;;1.43;74.52
42705;BME280;28342;42.594;23.414;2023-01-31T07:53:27;94148.25;;;1.36;74.84
42705;BME280;28342;42.594;23.414;2023-01-31T07:55:54;94154.78;;;1.34;74.93
42705;BME280;28342;42.594;23.414;2023-01-31T07:58:29;94147.22;;;1.32;75.45
42705;BME280;28342;42.594;23.414;2023-01-31T08:00:55;94163.97;;;1.46;74.77
42705;BME280;28342;42.594;23.414;2023-01-31T08:03:39;94146.22;;;1.38;74.30
42705;BME280;28342;42.594;23.414;2023-01-31T08:06:08;94126.28;;;1.22;74.66
42705;BME280;28342;42.594;23.414;2023-01-31T08:08:35;94161.88;;;1.43;74.48
42705;BME280;28342;42.594;23.414;2023-01-31T08:11:05;94176.00;;;1.47;75.29
42705;BME280;28342;42.594;23.414;2023-01-31T08:13:32;94164.28;;;1.60;75.54
42705;BME280;28342;42.594;23.414;2023-01-31T08:15:59;94122.09;;;1.21;75.52
42705;BME280;28342;42.594;23.414;2023-01-31T08:18:27;94154.56;;;1.40;75.84
42705;BME280;28342;42.594;23.414;2023-01-31T08:20:52;94170.03;;;1.67;75.63
42705;BME280;28342;42.594;23.414;2023-01-31T08:23:19;94153.28;;;1.58;75.54
42705;BME280;28342;42.594;23.414;2023-01-31T08:25:46;94161.41;;;1.62;75.80
42705;BME280;28342;42.594;23.414;2023-01-31T08:28:12;94157.75;;;1.63;75.42
42705;BME280;28342;42.594;23.414;2023-01-31T08:30:43;94141.53;;;1.56;74.82
42705;BME280;28342;42.594;23.414;2023-01-31T08:33:11;94172.66;;;1.72;74.60
42705;BME280;28342;42.594;23.414;2023-01-31T08:35:38;94138.88;;;1.40;74.79
42705;BME280;28342;42.594;23.414;2023-01-31T08:38:05;94181.28;;;1.78;74.78
42705;BME280;28342;42.594;23.414;2023-01-31T08:40:33;94155.13;;;1.68;73.90
42705;BME280;28342;42.594;23.414;2023-01-31T08:43:00;94167.94;;;1.79;72.83
42705;BME280;28342;42.594;23.414;2023-01-31T08:45:28;94176.59;;;1.85;73.81
42705;BME280;28342;42.594;23.414;2023-01-31T08:47:55;94170.84;;;1.88;73.09
42705;BME280;28342;42.594;23.414;2023-01-31T08:50:22;94154.09;;;1.79;72.75
42705;BME280;28342;42.594;23.414;2023-01-31T08:53:00;94183.41;;;1.96;74.09
42705;BME280;28342;42.594;23.414;2023-01-31T08:55:27;94181.56;;;1.92;73.29
42705;BME280;28342;42.594;23.414;2023-01-31T08:57:52;94187.06;;;1.90;72.79
42705;BME280;28342;42.594;23.414;2023-01-31T09:00:19;94180.00;;;1.91;73.54
42705;BME280;28342;42.594;23.414;2023-01-31T09:02:51;94186.53;;;1.93;73.86
42705;BME280;28342;42.594;23.414;2023-01-31T09:05:18;94151.47;;;1.74;73.27
42705;BME280;28342;42.594;23.414;2023-01-31T09:07:46;94149.91;;;1.78;72.87
42705;BME280;28342;42.594;23.414;2023-01-31T09:10:13;94110.66;;;1.42;73.48
42705;BME280;28342;42.594;23.414;2023-01-31T09:12:39;94144.69;;;1.73;73.33
42705;BME280;28342;42.594;23.414;2023-01-31T09:15:08;94149.91;;;1.78;73.46
42705;BME280;28342;42.594;23.414;2023-01-31T09:17:46;94140.22;;;1.78;74.18
42705;BME280;28342;42.594;23.414;2023-01-31T09:20:13;94169.78;;;1.94;73.22
42705;BME280;28342;42.594;23.414;2023-01-31T09:22:42;94165.09;;;1.91;72.57
42705;BME280;28342;42.594;23.414;2023-01-31T09:25:09;94165.09;;;1.91;72.07
42705;BME280;28342;42.594;23.414;2023-01-31T09:27:36;94150.44;;;1.75;71.55
42705;BME280;28342;42.594;23.414;2023-01-31T09:30:06;94148.88;;;1.84;71.04
42705;BME280;28342;42.594;23.414;2023-01-31T09:32:33;94170.84;;;2.08;71.35
42705;BME280;28342;42.594;23.414;2023-01-31T09:34:59;94198.56;;;2.09;71.23
42705;BME280;28342;42.594;23.414;2023-01-31T09:37:31;94160.91;;;1.85;70.23
42705;BME280;28342;42.594;23.414;2023-01-31T09:39:57;94134.75;;;1.80;69.57
42705;BME280;28342;42.594;23.414;2023-01-31T09:42:30;94144.69;;;1.88;71.03
42705;BME280;28342;42.594;23.414;2023-01-31T09:48:27;94098.13;;;1.65;71.11
42705;BME280;28342;42.594;23.414;2023-01-31T09:50:55;94132.38;;;2.09;71.57
42705;BME280;28342;42.594;23.414;2023-01-31T09:56:53;94135.75;;;2.40;69.16
42705;BME280;28342;42.594;23.414;2023-01-31T09:59:55;94158.22;;;2.77;68.09
42705;BME280;28342;42.594;23.414;2023-01-31T10:03:01;94093.25;;;2.74;66.94
42705;BME280;28342;42.594;23.414;2023-01-31T10:05:53;94145.38;;;3.35;67.03
42705;BME280;28342;42.594;23.414;2023-01-31T10:09:00;94112.00;;;3.50;67.29
42705;BME280;28342;42.594;23.414;2023-01-31T10:11:31;94115.84;;;3.68;65.44
42705;BME280;28342;42.594;23.414;2023-01-31T10:19:33;94132.50;;;3.82;64.46
42705;BME280;28342;42.594;23.414;2023-01-31T10:22:07;94122.66;;;3.69;64.59
42705;BME280;28342;42.594;23.414;2023-01-31T10:24:42;94135.22;;;3.67;65.26
42705;BME280;28342;42.594;23.414;2023-01-31T10:27:20;94118.38;;;3.39;65.67
42705;BME280;28342;42.594;23.414;2023-01-31T10:29:56;94146.25;;;3.69;66.43
42705;BME280;28342;42.594;23.414;2023-01-31T10:32:51;94111.38;;;3.64;65.75
42705;BME280;28342;42.594;23.414;2023-01-31T10:35:57;94131.94;;;3.90;65.64
42705;BME280;28342;42.594;23.414;2023-01-31T10:38:20;94097.81;;;3.51;64.40
42705;BME280;28342;42.594;23.414;2023-01-31T10:40:52;94123.22;;;3.61;65.39
42705;BME280;28342;42.594;23.414;2023-01-31T10:43:37;94115.44;;;3.46;64.57
42705;BME280;28342;42.594;23.414;2023-01-31T10:46:10;94125.47;;;3.39;65.56
42705;BME280;28342;42.594;23.414;2023-01-31T10:48:37;94115.06;;;3.18;64.88
42705;BME280;28342;42.594;23.414;2023-01-31T10:51:17;94117.88;;;3.37;65.66
42705;BME280;28342;42.594;23.414;2023-01-31T10:56:52;94110.31;;;3.20;64.53
42705;BME280;28342;42.594;23.414;2023-01-31T10:59:21;94121.16;;;3.04;64.77
42705;BME280;28342;42.594;23.414;2023-01-31T11:01:47;94109.13;;;3.03;65.42
42705;BME280;28342;42.594;23.414;2023-01-31T11:06:48;94100.66;;;3.16;66.17
42705;BME280;28342;42.594;23.414;2023-01-31T11:09:15;94132.63;;;3.23;66.61
42705;BME280;28342;42.594;23.414;2023-01-31T11:11:58;94108.06;;;3.04;67.48
42705;BME280;28342;42.594;23.414;2023-01-31T11:14:25;94111.19;;;3.06;67.54
42705;BME280;28342;42.594;23.414;2023-01-31T11:17:06;94124.22;;;3.21;67.56
42705;BME280;28342;42.594;23.414;2023-01-31T11:20:01;94089.00;;;2.88;67.98
42705;BME280;28342;42.594;23.414;2023-01-31T11:22:31;94115.97;;;2.88;67.70
42705;BME280;28342;42.594;23.414;2023-01-31T11:25:02;94109.97;;;2.88;68.93
42705;BME280;28342;42.594;23.414;2023-01-31T11:30:04;94129.78;;;3.04;68.67
42705;BME280;28342;42.594;23.414;2023-01-31T11:32:34;94132.47;;;2.89;69.41
42705;BME280;28342;42.594;23.414;2023-01-31T11:37:32;94127.28;;;2.79;71.17
42705;BME280;28342;42.594;23.414;2023-01-31T11:40:04;94105.34;;;2.64;70.39
42705;BME280;28342;42.594;23.414;2023-01-31T11:42:54;94102.72;;;2.59;71.01
42705;BME280;28342;42.594;23.414;2023-01-31T11:45:42;94101.66;;;2.65;71.58
42705;BME280;28342;42.594;23.414;2023-01-31T11:48:41;94118.31;;;2.90;71.16
42705;BME280;28342;42.594;23.414;2023-01-31T11:51:24;94098.47;;;2.74;72.99
42705;BME280;28342;42.594;23.414;2023-01-31T11:53:51;94121.28;;;2.68;72.75
42705;BME280;28342;42.594;23.414;2023-01-31T11:56:27;94119.97;;;2.70;73.60
42705;BME280;28342;42.594;23.414;2023-01-31T11:58:57;94118.47;;;2.49;74.91
42705;BME280;28342;42.594;23.414;2023-01-31T12:01:26;94094.94;;;2.39;75.00
42705;BME280;28342;42.594;23.414;2023-01-31T12:04:00;94114.31;;;2.38;75.33
42705;BME280;28342;42.594;23.414;2023-01-31T12:06:30;94106.97;;;2.35;76.37
42705;BME280;28342;42.594;23.414;2023-01-31T12:08:59;94091.31;;;2.15;77.63
42705;BME280;28342;42.594;23.414;2023-01-31T12:14:15;94076.66;;;2.19;78.92
42705;BME280;28342;42.594;23.414;2023-01-31T12:16:42;94091.53;;;2.28;79.81
42705;BME280;28342;42.594;23.414;2023-01-31T12:19:30;94120.56;;;2.42;78.51
42705;BME280;28342;42.594;23.414;2023-01-31T12:30:20;94120.34;;;2.33;79.35
42705;BME280;28342;42.594;23.414;2023-01-31T12:33:13;94116.91;;;2.48;79.59
42705;BME280;28342;42.594;23.414;2023-01-31T12:35:49;94063.06;;;2.12;79.15
42705;BME280;28342;42.594;23.414;2023-01-31T12:38:40;94104.88;;;2.37;78.82
42705;BME280;28342;42.594;23.414;2023-01-31T12:41:42;94112.72;;;2.42;77.81
42705;BME280;28342;42.594;23.414;2023-01-31T12:44:40;94121.91;;;2.34;75.79
42705;BME280;28342;42.594;23.414;2023-01-31T12:47:28;94131.31;;;2.35;76.55
42705;BME280;28342;42.594;23.414;2023-01-31T12:53:09;94123.16;;;2.57;77.05
42705;BME280;28342;42.594;23.414;2023-01-31T13:01:46;94114.78;;;2.60;74.57
42705;BME280;28342;42.594;23.414;2023-01-31T13:06:59;94099.91;;;2.40;75.25
42705;BME280;28342;42.594;23.414;2023-01-31T13:09:35;94103.31;;;2.46;74.60
42705;BME280;28342;42.594;23.414;2023-01-31T13:14:37;94114.28;;;2.43;77.49
42705;BME280;28342;42.594;23.414;2023-01-31T13:17:07;94105.91;;;2.46;78.89
42705;BME280;28342;42.594;23.414;2023-01-31T13:19:57;94136.53;;;2.51;80.52
42705;BME280;28342;42.594;23.414;2023-01-31T13:22:28;94111.44;;;2.24;80.99
42705;BME280;28342;42.594;23.414;2023-01-31T13:27:43;94101.25;;;2.07;82.07
42705;BME280;28342;42.594;23.414;2023-01-31T13:30:43;94138.13;;;2.31;82.92
42705;BME280;28342;42.594;23.414;2023-01-31T13:36:24;94136.78;;;2.44;77.45
42705;BME280;28342;42.594;23.414;2023-01-31T13:38:54;94118.22;;;2.46;77.78
42705;BME280;28342;42.594;23.414;2023-01-31T13:41:29;94126.06;;;2.46;77.31
42705;BME280;28342;42.594;23.414;2023-01-31T13:44:00;94114.84;;;2.20;76.67
42705;BME280;28342;42.594;23.414;2023-01-31T13:46:31;94119.81;;;2.26;78.10
42705;BME280;28342;42.594;23.414;2023-01-31T13:49:07;94153.56;;;2.33;80.06
42705;BME280;28342;42.594;23.414;2023-01-31T13:51:36;94161.41;;;2.28;81.13
42705;BME280;28342;42.594;23.414;2023-01-31T13:56:39;94158.53;;;2.14;79.01
42705;BME280;28342;42.594;23.414;2023-01-31T13:59:09;94143.66;;;2.04;79.20
42705;BME280;28342;42.594;23.414;2023-01-31T14:01:43;94155.16;;;2.03;79.21
42705;BME280;28342;42.594;23.414;2023-01-31T14:06:56;94145.47;;;2.04;79.76
42705;BME280;28342;42.594;23.414;2023-01-31T14:09:26;94160.38;;;2.14;78.53
42705;BME280;28342;42.594;23.414;2023-01-31T14:11:54;94174.78;;;2.31;79.22
42705;BME280;28342;42.594;23.414;2023-01-31T14:14:46;94165.38;;;2.15;77.59
42705;BME280;28342;42.594;23.414;2023-01-31T14:17:13;94149.91;;;1.98;77.36
42705;BME280;28342;42.594;23.414;2023-01-31T14:20:25;94150.97;;;1.87;77.17
42705;BME280;28342;42.594;23.414;2023-01-31T14:23:27;94180.00;;;2.01;76.89
42705;BME280;28342;42.594;23.414;2023-01-31T14:25:53;94155.69;;;1.90;77.14
42705;BME280;28342;42.594;23.414;2023-01-31T14:28:18;94165.63;;;1.93;76.86
42705;BME280;28342;42.594;23.414;2023-01-31T14:30:45;94149.13;;;1.83;75.56
42705;BME280;28342;42.594;23.414;2023-01-31T14:39:10;94172.66;;;2.13;77.37
42705;BME280;28342;42.594;23.414;2023-01-31T14:56:09;94189.69;;;2.05;75.90
42705;BME280;28342;42.594;23.414;2023-01-31T14:58:42;94167.16;;;1.79;75.95
42705;BME280;28342;42.594;23.414;2023-01-31T15:01:08;94189.16;;;1.93;76.54
42705;BME280;28342;42.594;23.414;2023-01-31T15:03:38;94179.47;;;1.94;75.64
42705;BME280;28342;42.594;23.414;2023-01-31T15:06:13;94187.06;;;1.95;75.23
42705;BME280;28342;42.594;23.414;2023-01-31T15:08:48;94196.44;;;1.81;75.05
42705;BME280;28342;42.594;23.414;2023-01-31T15:11:34;94224.97;;;1.93;74.86
42705;BME280;28342;42.594;23.414;2023-01-31T15:13:59;94222.38;;;1.88;74.29
42705;BME280;28342;42.594;23.414;2023-01-31T15:16:33;94222.09;;;1.84;75.53